Time;durP1;ratioP1;P1;durP2;ratioP2;P2;SDS_P1;SDS_P2;PMS_P1;PMS_P2;Temp;Humidity;BMP_temperature;BMP_pressure;BME280_temperature;BME280_humidity;BME280_pressure;Samples;Min_cycle;Max_cycle;Signal;HPM_P1;HPM_P2
2023/02/08 00:00:25;;;;;;;10.17;6.97;;;;;;;;;;5098008;28;20439;-75
2023/02/08 00:02:53;;;;;;;10.37;6.93;;;;;;;;;;5098081;28;20502;-75
2023/02/08 00:05:23;;;;;;;11.03;6.53;;;;;;;;;;5097922;28;20804;-75
2023/02/08 00:07:51;;;;;;;8.17;6.47;;;;;;;;;;5097883;28;20484;-75
2023/02/08 00:10:19;;;;;;;10.50;7.07;;;;;;;;;;5097564;28;20567;-76
2023/02/08 00:12:47;;;;;;;12.47;7.00;;;;;;;;;;5098083;28;20231;-76
2023/02/08 00:15:15;;;;;;;12.03;7.60;;;;;;;;;;5097220;28;20542;-75
2023/02/08 00:17:43;;;;;;;13.03;7.33;;;;;;;;;;5094902;28;20237;-75
2023/02/08 00:20:11;;;;;;;10.10;6.93;;;;;;;;;;5097922;28;20454;-75
2023/02/08 00:22:41;;;;;;;10.50;7.10;;;;;;;;;;5097677;28;20448;-75
2023/02/08 00:25:09;;;;;;;12.23;7.10;;;;;;;;;;5097517;28;20850;-75
2023/02/08 00:27:37;;;;;;;9.53;6.93;;;;;;;;;;5097610;28;20459;-75
2023/02/08 00:30:05;;;;;;;11.93;6.73;;;;;;;;;;5097743;28;20939;-75
2023/02/08 00:32:34;;;;;;;12.13;6.70;;;;;;;;;;5097785;28;20265;-75
2023/02/08 00:35:02;;;;;;;8.73;6.17;;;;;;;;;;5097534;28;20564;-75
2023/02/08 00:37:29;;;;;;;12.97;6.97;;;;;;;;;;5099522;28;20475;-75
2023/02/08 00:40:01;;;;;;;9.43;6.37;;;;;;;;;;5101729;28;20467;-75
2023/02/08 00:42:29;;;;;;;9.17;6.27;;;;;;;;;;5101791;28;20485;-75
2023/02/08 00:44:57;;;;;;;13.50;7.87;;;;;;;;;;5090320;28;20452;-75
2023/02/08 00:47:25;;;;;;;9.93;6.80;;;;;;;;;;5099469;28;20829;-75
2023/02/08 00:49:53;;;;;;;11.00;7.77;;;;;;;;;;5101466;28;20530;-75
2023/02/08 00:52:21;;;;;;;11.13;7.97;;;;;;;;;;5101298;28;20522;-75
2023/02/08 00:54:49;;;;;;;11.33;7.43;;;;;;;;;;5101542;28;20443;-75
2023/02/08 00:57:18;;;;;;;14.63;8.67;;;;;;;;;;5101691;28;20447;-75
2023/02/08 00:59:46;;;;;;;10.80;7.63;;;;;;;;;;5101668;28;20479;-75
2023/02/08 01:02:14;;;;;;;10.93;8.30;;;;;;;;;;5101535;28;20475;-75
2023/02/08 01:04:42;;;;;;;15.97;8.67;;;;;;;;;;5101425;28;20551;-74
2023/02/08 01:07:10;;;;;;;11.30;7.20;;;;;;;;;;5101281;28;20515;-74
2023/02/08 01:09:39;;;;;;;11.07;7.90;;;;;;;;;;5101172;28;20454;-74
2023/02/08 01:12:07;;;;;;;11.07;7.43;;;;;;;;;;5101071;28;20582;-74
2023/02/08 01:14:37;;;;;;;10.70;7.37;;;;;;;;;;5100466;28;20481;-75
2023/02/08 01:17:05;;;;;;;14.27;8.40;;;;;;;;;;5092275;28;20486;-74
2023/02/08 01:19:33;;;;;;;9.70;7.10;;;;;;;;;;5100848;28;20474;-75
2023/02/08 01:22:01;;;;;;;14.13;7.60;;;;;;;;;;5100893;28;20881;-74
2023/02/08 01:24:29;;;;;;;12.13;8.30;;;;;;;;;;5100525;28;20546;-74
2023/02/08 01:26:57;;;;;;;12.33;8.27;;;;;;;;;;5101146;28;20538;-75
2023/02/08 01:29:25;;;;;;;11.00;7.90;;;;;;;;;;5101130;28;20530;-75
2023/02/08 01:31:55;;;;;;;10.90;7.60;;;;;;;;;;5100772;28;20874;-75
2023/02/08 01:34:23;;;;;;;12.63;8.57;;;;;;;;;;5100763;28;20546;-74
2023/02/08 01:36:51;;;;;;;11.30;7.77;;;;;;;;;;5100543;28;20467;-75
2023/02/08 01:39:19;;;;;;;12.73;8.67;;;;;;;;;;5100318;28;20958;-74
2023/02/08 01:41:47;;;;;;;11.47;7.90;;;;;;;;;;5100855;28;20435;-74
2023/02/08 01:44:35;;;;;;;14.23;8.47;;;;;;;;;;5087418;28;20472;-74
2023/02/08 01:47:05;;;;;;;11.80;7.97;;;;;;;;;;5065881;28;20470;-74
2023/02/08 01:49:34;;;;;;;12.27;8.73;;;;;;;;;;5100001;28;20504;-74
2023/02/08 01:52:05;;;;;;;13.33;8.23;;;;;;;;;;5100328;28;20841;-75
2023/02/08 01:54:35;;;;;;;14.37;8.33;;;;;;;;;;5099989;28;20467;-74
2023/02/08 01:57:03;;;;;;;10.30;7.93;;;;;;;;;;5100413;28;20444;-74
2023/02/08 01:59:33;;;;;;;12.70;8.17;;;;;;;;;;5100419;28;20527;-74
2023/02/08 02:02:03;;;;;;;15.53;9.37;;;;;;;;;;5100194;28;20440;-74
2023/02/08 02:04:32;;;;;;;13.30;8.30;;;;;;;;;;5099965;28;20463;-75
2023/02/08 02:07:00;;;;;;;14.97;8.73;;;;;;;;;;5100424;28;20436;-75
2023/02/08 02:09:31;;;;;;;9.77;7.90;;;;;;;;;;5099993;28;20505;-74
2023/02/08 02:11:59;;;;;;;11.73;7.83;;;;;;;;;;5099995;28;21012;-74
2023/02/08 02:14:28;;;;;;;12.30;8.37;;;;;;;;;;5098928;28;20998;-74
2023/02/08 02:16:55;;;;;;;15.10;8.27;;;;;;;;;;5099173;28;20474;-75
2023/02/08 02:19:27;;;;;;;12.00;8.40;;;;;;;;;;5099705;28;20947;-74
2023/02/08 02:22:04;;;;;;;16.40;9.80;;;;;;;;;;5099914;28;20862;-74
2023/02/08 02:24:45;;;;;;;15.00;9.47;;;;;;;;;;5099532;28;21021;-74
2023/02/08 02:27:26;;;;;;;10.17;6.83;;;;;;;;;;5099973;28;20449;-75
2023/02/08 02:30:07;;;;;;;12.97;8.13;;;;;;;;;;5099744;28;20482;-75
2023/02/08 02:32:53;;;;;;;14.80;8.90;;;;;;;;;;5099817;28;20483;-74
2023/02/08 02:35:25;;;;;;;13.47;8.77;;;;;;;;;;5099011;28;20447;-73
2023/02/08 02:37:56;;;;;;;11.73;8.20;;;;;;;;;;5099532;28;20444;-74
2023/02/08 02:40:28;;;;;;;10.70;8.13;;;;;;;;;;5099195;28;20443;-74
2023/02/08 02:45:53;;;;;;;14.03;9.00;;;;;;;;;;5086664;28;20444;-74
2023/02/08 02:48:23;;;;;;;13.13;8.70;;;;;;;;;;5099190;28;20439;-74
2023/02/08 02:50:55;;;;;;;14.43;8.63;;;;;;;;;;5099120;28;20494;-74
2023/02/08 02:53:28;;;;;;;12.47;8.90;;;;;;;;;;5099028;28;20565;-74
2023/02/08 02:55:58;;;;;;;14.27;9.17;;;;;;;;;;5099441;28;20526;-75
2023/02/08 02:58:27;;;;;;;14.27;8.97;;;;;;;;;;5085202;28;20478;-75
2023/02/08 03:00:56;;;;;;;16.43;9.47;;;;;;;;;;5098633;28;20447;-75
2023/02/08 03:03:25;;;;;;;13.93;8.67;;;;;;;;;;5098837;28;20486;-75
2023/02/08 03:05:58;;;;;;;13.37;9.03;;;;;;;;;;5098901;28;20439;-75
2023/02/08 03:08:33;;;;;;;12.43;9.87;;;;;;;;;;5098567;28;20447;-74
2023/02/08 03:11:08;;;;;;;16.00;8.73;;;;;;;;;;5099162;28;20444;-74
2023/02/08 03:13:44;;;;;;;13.67;9.17;;;;;;;;;;5097651;28;20848;-75
2023/02/08 03:16:16;;;;;;;13.13;8.77;;;;;;;;;;5092134;28;20456;-74
2023/02/08 03:18:52;;;;;;;12.30;9.93;;;;;;;;;;5094280;28;20447;-75
2023/02/08 03:21:27;;;;;;;13.70;9.03;;;;;;;;;;5088677;28;20447;-75
2023/02/08 03:23:57;;;;;;;13.50;9.50;;;;;;;;;;5098567;28;20462;-75
2023/02/08 03:26:31;;;;;;;12.97;8.53;;;;;;;;;;5098833;28;20471;-75
2023/02/08 03:29:03;;;;;;;12.43;8.90;;;;;;;;;;5098438;28;20479;-74
2023/02/08 03:31:33;;;;;;;13.33;9.13;;;;;;;;;;5098427;28;20448;-75
2023/02/08 03:34:04;;;;;;;15.63;9.43;;;;;;;;;;5098594;28;20540;-76
2023/02/08 03:36:36;;;;;;;15.77;9.00;;;;;;;;;;5097990;28;20495;-75
2023/02/08 03:39:06;;;;;;;16.83;11.07;;;;;;;;;;5098439;28;20448;-74
2023/02/08 03:41:37;;;;;;;12.97;9.00;;;;;;;;;;5097490;28;20467;-75
2023/02/08 03:44:08;;;;;;;14.00;9.30;;;;;;;;;;5094510;28;20531;-75
2023/02/08 03:46:38;;;;;;;14.13;9.33;;;;;;;;;;5098493;28;20446;-75
2023/02/08 03:49:07;;;;;;;14.90;9.17;;;;;;;;;;5098185;28;20892;-75
2023/02/08 03:51:39;;;;;;;15.47;9.37;;;;;;;;;;5098187;28;20791;-75
2023/02/08 03:54:11;;;;;;;16.43;10.50;;;;;;;;;;5097995;28;20554;-74
2023/02/08 03:56:43;;;;;;;17.20;9.40;;;;;;;;;;5098449;28;20545;-76
2023/02/08 03:59:12;;;;;;;15.90;9.17;;;;;;;;;;5098462;28;20447;-75
2023/02/08 04:01:43;;;;;;;15.20;9.40;;;;;;;;;;5098045;28;20943;-75
2023/02/08 04:04:12;;;;;;;14.57;9.47;;;;;;;;;;5098118;28;20456;-74
2023/02/08 04:06:41;;;;;;;15.87;9.90;;;;;;;;;;5097960;28;20897;-75
2023/02/08 04:09:10;;;;;;;15.17;10.00;;;;;;;;;;5097971;28;20471;-75
2023/02/08 04:11:38;;;;;;;19.47;11.37;;;;;;;;;;5096951;28;20448;-75
2023/02/08 04:14:06;;;;;;;14.20;9.37;;;;;;;;;;5085027;28;20507;-75
2023/02/08 04:16:34;;;;;;;15.03;9.63;;;;;;;;;;5098109;28;20522;-75
2023/02/08 04:19:02;;;;;;;12.20;9.73;;;;;;;;;;5098003;28;20439;-75
2023/02/08 04:21:30;;;;;;;15.70;10.40;;;;;;;;;;5098089;28;20526;-75
2023/02/08 04:23:59;;;;;;;13.77;9.70;;;;;;;;;;5097362;28;20460;-74
2023/02/08 04:26:27;;;;;;;14.10;10.47;;;;;;;;;;5098003;28;20439;-75
2023/02/08 04:28:55;;;;;;;14.27;10.47;;;;;;;;;;5097551;28;20494;-74
2023/02/08 04:31:23;;;;;;;16.70;10.60;;;;;;;;;;5097630;28;20448;-74
2023/02/08 04:33:53;;;;;;;16.20;11.20;;;;;;;;;;5097569;28;20848;-73
2023/02/08 04:36:22;;;;;;;15.63;10.70;;;;;;;;;;5097342;28;21002;-74
2023/02/08 04:38:50;;;;;;;14.40;10.43;;;;;;;;;;5097599;28;20535;-76
2023/02/08 04:41:20;;;;;;;18.40;10.40;;;;;;;;;;5096686;28;20439;-76
2023/02/08 04:43:48;;;;;;;14.97;10.27;;;;;;;;;;5090125;28;20479;-76
2023/02/08 04:46:16;;;;;;;16.20;10.07;;;;;;;;;;5089840;28;20436;-75
2023/02/08 04:48:44;;;;;;;15.40;10.10;;;;;;;;;;5097853;28;20473;-75
2023/02/08 04:51:12;;;;;;;18.33;10.50;;;;;;;;;;5097505;28;20493;-75
2023/02/08 04:53:40;;;;;;;17.67;11.43;;;;;;;;;;5096650;28;20998;-75
2023/02/08 04:56:08;;;;;;;17.37;11.27;;;;;;;;;;5076799;28;20456;-75
2023/02/08 04:58:37;;;;;;;15.10;10.23;;;;;;;;;;5080300;28;20484;-75
2023/02/08 05:01:06;;;;;;;17.73;11.00;;;;;;;;;;5088713;28;20447;-75
2023/02/08 05:03:34;;;;;;;16.27;10.20;;;;;;;;;;5095346;28;20455;-75
2023/02/08 05:06:02;;;;;;;15.53;10.97;;;;;;;;;;5093321;28;20789;-75
2023/02/08 05:08:30;;;;;;;19.13;11.87;;;;;;;;;;5093162;28;20452;-75
2023/02/08 05:10:58;;;;;;;17.90;12.50;;;;;;;;;;5096293;28;20450;-76
2023/02/08 05:13:26;;;;;;;15.30;10.20;;;;;;;;;;5095972;28;20482;-75
2023/02/08 05:15:56;;;;;;;16.73;11.57;;;;;;;;;;5095075;28;20534;-75
2023/02/08 05:18:24;;;;;;;15.27;10.17;;;;;;;;;;5096284;28;20435;-76
2023/02/08 05:20:56;;;;;;;15.67;11.13;;;;;;;;;;5092109;28;20452;-75
2023/02/08 05:23:24;;;;;;;17.47;11.73;;;;;;;;;;5093566;28;20477;-75
2023/02/08 05:25:52;;;;;;;15.60;10.53;;;;;;;;;;5099676;28;20926;-75
2023/02/08 05:28:20;;;;;;;17.07;11.43;;;;;;;;;;5090394;28;20952;-74
2023/02/08 05:30:49;;;;;;;20.67;11.93;;;;;;;;;;5097526;28;20546;-75
2023/02/08 05:33:18;;;;;;;16.57;11.07;;;;;;;;;;5100811;28;20486;-75
2023/02/08 05:35:46;;;;;;;13.67;10.70;;;;;;;;;;5096650;28;20540;-75
2023/02/08 05:38:14;;;;;;;21.23;12.40;;;;;;;;;;5100376;28;20498;-75
2023/02/08 05:40:42;;;;;;;18.03;10.53;;;;;;;;;;5100907;28;20450;-75
2023/02/08 05:43:11;;;;;;;17.57;12.27;;;;;;;;;;5100638;28;20495;-75
2023/02/08 05:45:39;;;;;;;17.77;11.13;;;;;;;;;;5100600;28;20439;-74
2023/02/08 05:48:08;;;;;;;19.53;11.83;;;;;;;;;;5100615;28;20479;-75
2023/02/08 05:50:37;;;;;;;16.63;10.50;;;;;;;;;;5089986;28;20452;-75
2023/02/08 05:53:06;;;;;;;15.13;11.47;;;;;;;;;;5097303;28;20501;-75
2023/02/08 05:55:34;;;;;;;15.83;10.57;;;;;;;;;;5100429;28;20961;-74
2023/02/08 05:58:02;;;;;;;15.67;10.87;;;;;;;;;;5100216;28;20531;-75
2023/02/08 06:00:30;;;;;;;19.50;12.13;;;;;;;;;;5099949;28;20471;-75
2023/02/08 06:02:58;;;;;;;17.57;10.90;;;;;;;;;;5098698;28;20466;-75
2023/02/08 06:05:26;;;;;;;21.20;12.40;;;;;;;;;;5095971;28;20454;-75
2023/02/08 06:07:56;;;;;;;20.33;12.47;;;;;;;;;;5100083;28;20450;-75
2023/02/08 06:10:24;;;;;;;19.23;12.10;;;;;;;;;;5100026;28;20545;-76
2023/02/08 06:12:52;;;;;;;21.57;12.30;;;;;;;;;;5099804;28;20464;-75
2023/02/08 06:15:20;;;;;;;47.60;24.33;;;;;;;;;;5100047;28;20515;-75
2023/02/08 06:17:48;;;;;;;19.67;12.47;;;;;;;;;;5098915;28;20482;-75
2023/02/08 06:20:16;;;;;;;16.73;11.67;;;;;;;;;;5099771;28;20532;-75
2023/02/08 06:22:44;;;;;;;17.97;11.43;;;;;;;;;;5099744;28;20967;-75
2023/02/08 06:25:13;;;;;;;18.93;12.13;;;;;;;;;;5099417;28;20450;-75
2023/02/08 06:27:41;;;;;;;17.70;12.37;;;;;;;;;;5099927;28;20451;-75
2023/02/08 06:30:09;;;;;;;17.17;11.07;;;;;;;;;;5099889;28;20443;-76
2023/02/08 06:32:38;;;;;;;18.83;12.07;;;;;;;;;;5099266;28;20805;-76
2023/02/08 06:35:06;;;;;;;17.47;12.43;;;;;;;;;;5094497;28;20990;-75
2023/02/08 06:37:34;;;;;;;19.90;12.73;;;;;;;;;;5091213;28;20475;-76
2023/02/08 06:40:02;;;;;;;26.33;11.97;;;;;;;;;;5095369;28;20446;-75
2023/02/08 06:42:31;;;;;;;27.37;13.63;;;;;;;;;;5097880;28;20954;-75
2023/02/08 06:44:59;;;;;;;16.33;11.33;;;;;;;;;;5091563;28;20471;-75
2023/02/08 06:47:27;;;;;;;17.97;10.83;;;;;;;;;;5092240;28;20826;-75
2023/02/08 06:49:55;;;;;;;19.83;11.47;;;;;;;;;;5095437;28;20981;-75
2023/02/08 06:52:23;;;;;;;22.60;11.70;;;;;;;;;;5095686;28;20446;-76
2023/02/08 06:54:51;;;;;;;17.90;11.30;;;;;;;;;;5098228;28;20915;-76
2023/02/08 06:57:19;;;;;;;19.03;13.10;;;;;;;;;;5099019;28;20448;-75
2023/02/08 06:59:49;;;;;;;19.30;11.83;;;;;;;;;;5099354;28;20458;-75
2023/02/08 07:02:18;;;;;;;19.60;11.00;;;;;;;;;;5099182;28;20447;-72
2023/02/08 07:04:46;;;;;;;20.50;12.13;;;;;;;;;;5077450;28;20982;-69
2023/02/08 07:07:15;;;;;;;34.60;18.63;;;;;;;;;;5081869;28;20444;-69
2023/02/08 07:09:43;;;;;;;27.53;14.27;;;;;;;;;;5098645;28;20523;-69
2023/02/08 07:12:11;;;;;;;20.27;13.97;;;;;;;;;;5099140;28;20470;-69
2023/02/08 07:14:40;;;;;;;25.33;13.63;;;;;;;;;;5098487;28;20479;-69
2023/02/08 07:17:10;;;;;;;19.50;12.03;;;;;;;;;;5096616;28;20451;-69
2023/02/08 07:19:38;;;;;;;21.63;13.77;;;;;;;;;;5085891;28;20447;-69
2023/02/08 07:22:08;;;;;;;19.37;12.10;;;;;;;;;;5098572;28;20444;-70
2023/02/08 07:24:36;;;;;;;20.77;12.33;;;;;;;;;;5108935;28;20456;-71
2023/02/08 07:27:05;;;;;;;18.10;12.00;;;;;;;;;;5098721;28;20521;-70
2023/02/08 07:29:33;;;;;;;15.70;11.53;;;;;;;;;;5098494;28;20444;-70
2023/02/08 07:32:01;;;;;;;17.40;11.77;;;;;;;;;;5089815;28;20527;-70
2023/02/08 07:34:33;;;;;;;20.37;12.37;;;;;;;;;;5080786;28;20520;-70
2023/02/08 07:37:04;;;;;;;22.43;11.30;;;;;;;;;;5080336;28;20508;-66
2023/02/08 07:39:32;;;;;;;21.80;12.50;;;;;;;;;;5079862;28;21088;-67
2023/02/08 07:42:00;;;;;;;17.43;10.47;;;;;;;;;;5084814;28;20491;-70
2023/02/08 07:44:28;;;;;;;15.70;11.70;;;;;;;;;;5091311;28;20475;-73
2023/02/08 07:46:57;;;;;;;18.87;11.67;;;;;;;;;;5096012;28;20467;-73
2023/02/08 07:49:25;;;;;;;17.53;11.73;;;;;;;;;;5085549;28;20487;-74
2023/02/08 07:51:54;;;;;;;19.63;11.87;;;;;;;;;;5090537;28;20975;-74
2023/02/08 07:54:22;;;;;;;19.30;10.73;;;;;;;;;;5086926;28;20482;-74
2023/02/08 07:56:50;;;;;;;18.40;10.73;;;;;;;;;;5081825;28;20448;-73
2023/02/08 07:59:18;;;;;;;16.17;10.70;;;;;;;;;;5081850;28;20935;-72
2023/02/08 08:01:47;;;;;;;22.97;13.00;;;;;;;;;;5084562;28;20455;-74
2023/02/08 08:04:15;;;;;;;18.37;11.40;;;;;;;;;;5097102;28;20482;-75
2023/02/08 08:06:45;;;;;;;16.77;10.90;;;;;;;;;;5093499;28;20462;-76
2023/02/08 08:09:14;;;;;;;18.53;10.53;;;;;;;;;;5089924;28;20457;-75
2023/02/08 08:11:42;;;;;;;16.33;11.00;;;;;;;;;;5084114;28;21240;-75
2023/02/08 08:14:10;;;;;;;19.43;11.23;;;;;;;;;;5098977;28;21967;-74
2023/02/08 08:16:39;;;;;;;25.50;12.67;;;;;;;;;;5087561;28;20483;-75
2023/02/08 08:19:07;;;;;;;18.53;12.80;;;;;;;;;;5088794;28;20823;-74
2023/02/08 08:21:35;;;;;;;22.10;13.07;;;;;;;;;;5091959;28;20966;-71
2023/02/08 08:24:03;;;;;;;20.80;13.67;;;;;;;;;;5090392;28;20464;-71
2023/02/08 08:26:34;;;;;;;24.43;13.00;;;;;;;;;;5095159;28;20444;-71
2023/02/08 08:29:02;;;;;;;18.97;12.37;;;;;;;;;;5097344;28;20458;-71
2023/02/08 08:31:30;;;;;;;16.67;11.67;;;;;;;;;;5097506;28;20455;-71
2023/02/08 08:33:58;;;;;;;23.97;13.43;;;;;;;;;;5094058;28;20464;-72
2023/02/08 08:36:26;;;;;;;19.33;11.73;;;;;;;;;;5087545;28;20492;-71
2023/02/08 08:38:55;;;;;;;19.33;12.50;;;;;;;;;;5080596;28;20474;-71
2023/02/08 08:41:26;;;;;;;16.37;11.77;;;;;;;;;;5075604;28;20509;-72
2023/02/08 08:43:55;;;;;;;25.13;13.23;;;;;;;;;;5080529;28;20480;-72
2023/02/08 08:46:23;;;;;;;22.40;13.03;;;;;;;;;;5081743;28;20857;-71
2023/02/08 08:48:52;;;;;;;24.87;13.60;;;;;;;;;;5086086;28;20851;-72
2023/02/08 08:51:20;;;;;;;29.13;14.07;;;;;;;;;;5075310;28;20559;-71
2023/02/08 08:53:48;;;;;;;23.53;14.40;;;;;;;;;;5073934;28;20558;-71
2023/02/08 08:56:16;;;;;;;21.20;12.63;;;;;;;;;;5075031;28;20567;-72
2023/02/08 08:58:44;;;;;;;24.17;14.20;;;;;;;;;;5091021;28;20455;-71
2023/02/08 09:01:14;;;;;;;24.00;13.70;;;;;;;;;;5090459;28;20543;-72
2023/02/08 09:03:42;;;;;;;24.73;13.90;;;;;;;;;;5090950;28;20472;-72
2023/02/08 09:06:10;;;;;;;22.97;12.60;;;;;;;;;;5082990;28;20452;-72
2023/02/08 09:08:39;;;;;;;22.80;15.23;;;;;;;;;;5078195;28;20460;-73
2023/02/08 09:11:08;;;;;;;22.40;13.63;;;;;;;;;;5081792;28;20871;-72
2023/02/08 09:13:36;;;;;;;24.77;14.27;;;;;;;;;;5100482;28;20475;-72
2023/02/08 09:16:05;;;;;;;24.03;14.40;;;;;;;;;;5094707;28;20484;-71
2023/02/08 09:18:37;;;;;;;22.97;13.83;;;;;;;;;;5089441;28;20538;-72
2023/02/08 09:21:06;;;;;;;26.83;14.43;;;;;;;;;;5099393;28;20530;-71
2023/02/08 09:23:34;;;;;;;28.80;16.00;;;;;;;;;;5080282;28;20550;-73
2023/02/08 09:26:02;;;;;;;19.30;13.67;;;;;;;;;;5080620;28;20459;-72
2023/02/08 09:28:30;;;;;;;26.73;15.30;;;;;;;;;;5091403;28;20452;-70
2023/02/08 09:31:00;;;;;;;25.07;15.23;;;;;;;;;;5088286;28;20475;-70
2023/02/08 09:33:32;;;;;;;30.57;14.40;;;;;;;;;;5086051;28;20472;-71
2023/02/08 09:36:02;;;;;;;25.13;15.00;;;;;;;;;;5089116;28;20552;-71
2023/02/08 09:38:30;;;;;;;26.37;14.67;;;;;;;;;;5087318;28;20463;-71
2023/02/08 09:41:06;;;;;;;23.50;12.80;;;;;;;;;;5084373;28;20447;-70
2023/02/08 09:43:40;;;;;;;20.60;14.00;;;;;;;;;;5094332;28;20865;-70
2023/02/08 09:46:11;;;;;;;26.53;14.97;;;;;;;;;;5083141;28;21239;-70
2023/02/08 09:48:40;;;;;;;25.47;15.30;;;;;;;;;;5084229;28;20998;-71
2023/02/08 09:51:22;;;;;;;24.07;13.70;;;;;;;;;;5093789;28;20447;-70
2023/02/08 09:53:53;;;;;;;26.03;14.87;;;;;;;;;;5095105;28;20476;-70
2023/02/08 09:56:25;;;;;;;26.00;15.00;;;;;;;;;;5088393;28;20479;-70
2023/02/08 09:58:53;;;;;;;25.40;14.83;;;;;;;;;;5092624;28;20452;-71
2023/02/08 10:01:22;;;;;;;24.57;15.03;;;;;;;;;;5090907;28;20463;-70
2023/02/08 10:03:53;;;;;;;24.57;14.80;;;;;;;;;;5091011;28;20993;-70
2023/02/08 10:06:22;;;;;;;26.80;13.50;;;;;;;;;;5099984;28;20493;-70
2023/02/08 10:08:51;;;;;;;22.43;14.83;;;;;;;;;;5088612;28;20460;-70
2023/02/08 10:11:35;;;;;;;22.57;14.30;;;;;;;;;;5092356;28;20483;-70
2023/02/08 10:14:23;;;;;;;26.10;14.33;;;;;;;;;;5092620;28;20491;-70
2023/02/08 10:16:56;;;;;;;21.97;14.13;;;;;;;;;;5086041;28;20544;-70
2023/02/08 10:19:29;;;;;;;23.83;15.20;;;;;;;;;;5100925;28;20466;-70
2023/02/08 10:22:04;;;;;;;25.87;14.23;;;;;;;;;;5099724;28;20490;-70
2023/02/08 10:24:46;;;;;;;26.47;15.60;;;;;;;;;;5086603;28;20455;-70
2023/02/08 10:27:16;;;;;;;23.73;15.30;;;;;;;;;;5097676;28;20855;-70
2023/02/08 10:30:00;;;;;;;31.73;16.63;;;;;;;;;;5094137;28;20467;-70
2023/02/08 10:32:37;;;;;;;20.80;14.60;;;;;;;;;;5096527;28;20436;-70
2023/02/08 10:35:11;;;;;;;25.53;15.47;;;;;;;;;;5094149;28;20492;-70
2023/02/08 10:37:42;;;;;;;25.10;15.13;;;;;;;;;;5099788;28;20511;-70
2023/02/08 10:40:24;;;;;;;28.37;15.63;;;;;;;;;;5092727;28;20510;-70
2023/02/08 10:42:55;;;;;;;23.70;15.33;;;;;;;;;;5083598;28;20547;-70
2023/02/08 10:45:25;;;;;;;22.13;13.53;;;;;;;;;;5077465;28;20468;-70
2023/02/08 10:47:54;;;;;;;21.57;13.37;;;;;;;;;;5083324;28;20494;-70
2023/02/08 10:50:26;;;;;;;21.27;13.40;;;;;;;;;;5078500;28;20529;-70
2023/02/08 10:52:58;;;;;;;20.63;13.23;;;;;;;;;;5077319;28;20472;-70
2023/02/08 10:55:26;;;;;;;24.93;15.77;;;;;;;;;;5076981;28;20455;-71
2023/02/08 10:57:57;;;;;;;22.03;15.17;;;;;;;;;;5084408;28;20480;-71
2023/02/08 11:00:26;;;;;;;23.17;13.63;;;;;;;;;;5078960;28;20455;-70
2023/02/08 11:02:55;;;;;;;20.40;13.97;;;;;;;;;;5083049;28;20472;-70
2023/02/08 11:05:31;;;;;;;19.63;12.40;;;;;;;;;;5083336;28;20519;-70
2023/02/08 11:08:07;;;;;;;21.53;13.97;;;;;;;;;;5084285;28;20456;-70
2023/02/08 11:10:36;;;;;;;18.67;13.37;;;;;;;;;;5086798;28;20447;-70
2023/02/08 11:13:06;;;;;;;20.97;12.43;;;;;;;;;;5080758;28;20504;-69
2023/02/08 11:15:38;;;;;;;21.23;12.30;;;;;;;;;;5082410;28;20480;-73
2023/02/08 11:18:07;;;;;;;17.50;12.07;;;;;;;;;;5080520;28;20480;-71
2023/02/08 11:20:36;;;;;;;17.50;12.60;;;;;;;;;;5079754;28;20452;-70
2023/02/08 11:23:05;;;;;;;23.77;13.23;;;;;;;;;;5087289;28;20978;-72
2023/02/08 11:25:36;;;;;;;18.10;12.60;;;;;;;;;;5098541;28;20974;-70
2023/02/08 11:28:04;;;;;;;19.77;12.87;;;;;;;;;;5098672;28;20476;-67
2023/02/08 11:30:33;;;;;;;24.67;13.33;;;;;;;;;;5096855;28;20451;-66
2023/02/08 11:33:18;;;;;;;17.07;11.70;;;;;;;;;;5089822;28;20498;-71
2023/02/08 11:35:57;;;;;;;23.80;13.67;;;;;;;;;;5097105;28;20499;-73
2023/02/08 11:38:27;;;;;;;22.50;11.47;;;;;;;;;;5096700;28;20225;-68
2023/02/08 11:40:58;;;;;;;17.93;12.37;;;;;;;;;;5095873;28;20683;-70
2023/02/08 11:43:28;;;;;;;22.33;13.63;;;;;;;;;;5098143;28;20313;-68
2023/02/08 11:45:57;;;;;;;21.90;12.63;;;;;;;;;;5098625;28;20229;-70
2023/02/08 11:48:26;;;;;;;19.43;12.30;;;;;;;;;;5094404;28;20209;-70
2023/02/08 11:50:55;;;;;;;19.30;12.80;;;;;;;;;;5098332;28;20206;-68
2023/02/08 11:53:27;;;;;;;19.63;12.80;;;;;;;;;;5082598;28;20580;-68
2023/02/08 11:56:08;;;;;;;18.13;11.87;;;;;;;;;;5094261;28;20201;-66
2023/02/08 11:58:36;;;;;;;25.57;12.97;;;;;;;;;;5087446;28;20305;-67
2023/02/08 12:01:05;;;;;;;22.00;12.27;;;;;;;;;;5087609;28;20729;-70
2023/02/08 12:03:37;;;;;;;19.00;12.47;;;;;;;;;;5081757;28;20218;-69
2023/02/08 12:06:14;;;;;;;22.43;12.80;;;;;;;;;;5080401;28;20202;-69
2023/02/08 12:08:46;;;;;;;23.60;13.60;;;;;;;;;;5094983;28;20451;-68
2023/02/08 12:11:19;;;;;;;20.93;12.77;;;;;;;;;;5081868;28;20456;-66
2023/02/08 12:13:53;;;;;;;44.77;26.57;;;;;;;;;;5090355;28;20864;-70
2023/02/08 12:16:31;;;;;;;28.97;17.97;;;;;;;;;;5092873;28;20460;-71
2023/02/08 12:19:08;;;;;;;18.40;13.53;;;;;;;;;;5091355;28;20451;-71
2023/02/08 12:21:41;;;;;;;23.00;13.27;;;;;;;;;;5091581;28;20457;-72
2023/02/08 12:24:15;;;;;;;17.70;11.40;;;;;;;;;;5092317;28;20475;-72
2023/02/08 12:26:50;;;;;;;24.17;13.80;;;;;;;;;;5094306;28;20598;-72
2023/02/08 12:29:25;;;;;;;22.57;13.70;;;;;;;;;;5093813;28;20490;-72
2023/02/08 12:32:10;;;;;;;17.30;12.53;;;;;;;;;;5094016;28;20439;-73
2023/02/08 12:34:50;;;;;;;19.40;13.17;;;;;;;;;;5100151;28;20228;-73
2023/02/08 12:43:12;;;;;;;18.77;12.60;;;;;;;;;;5092287;28;20490;-73
2023/02/08 12:45:48;;;;;;;20.47;13.13;;;;;;;;;;5089126;28;20466;-73
2023/02/08 12:48:21;;;;;;;25.07;13.37;;;;;;;;;;5090595;28;20454;-73
2023/02/08 12:50:52;;;;;;;22.13;13.33;;;;;;;;;;5089852;28;20463;-73
2023/02/08 12:53:24;;;;;;;24.60;14.40;;;;;;;;;;5100902;28;20481;-73
2023/02/08 12:55:54;;;;;;;19.70;12.60;;;;;;;;;;5101822;28;20496;-73
2023/02/08 12:58:26;;;;;;;21.13;13.20;;;;;;;;;;5099428;28;20479;-73
2023/02/08 13:00:55;;;;;;;19.40;12.63;;;;;;;;;;5099856;28;20534;-72
2023/02/08 13:03:31;;;;;;;20.40;12.70;;;;;;;;;;5099914;28;20221;-71
2023/02/08 13:06:01;;;;;;;20.13;13.67;;;;;;;;;;5087608;28;20263;-72
2023/02/08 13:08:31;;;;;;;25.53;13.47;;;;;;;;;;5083305;28;20204;-71
2023/02/08 13:11:01;;;;;;;19.23;13.17;;;;;;;;;;5092621;28;20194;-71
2023/02/08 13:13:51;;;;;;;20.93;12.33;;;;;;;;;;5098955;28;20270;-72
2023/02/08 13:16:21;;;;;;;19.50;13.60;;;;;;;;;;5084017;28;20279;-72
2023/02/08 13:18:53;;;;;;;23.27;12.97;;;;;;;;;;5100277;28;20249;-72
2023/02/08 13:21:24;;;;;;;21.57;13.60;;;;;;;;;;5085890;28;20217;-72
2023/02/08 13:23:52;;;;;;;19.90;12.87;;;;;;;;;;5084217;28;20225;-72
2023/02/08 13:26:23;;;;;;;19.70;13.07;;;;;;;;;;5099497;28;20292;-73
2023/02/08 13:28:54;;;;;;;20.13;12.40;;;;;;;;;;5100785;28;20194;-73
2023/02/08 13:31:22;;;;;;;18.77;11.50;;;;;;;;;;5091255;28;20213;-72
2023/02/08 13:33:52;;;;;;;20.37;12.43;;;;;;;;;;5100911;28;20252;-72
2023/02/08 13:36:29;;;;;;;20.13;12.93;;;;;;;;;;5100514;28;20236;-72
2023/02/08 13:38:59;;;;;;;19.13;12.30;;;;;;;;;;5087401;28;20692;-72
2023/02/08 13:41:28;;;;;;;24.53;12.33;;;;;;;;;;5086192;28;20199;-72
2023/02/08 13:43:59;;;;;;;16.90;12.47;;;;;;;;;;5099781;28;20221;-71
2023/02/08 13:46:28;;;;;;;19.27;12.13;;;;;;;;;;5099564;28;20721;-73
2023/02/08 13:48:58;;;;;;;20.77;11.83;;;;;;;;;;5098041;28;20567;-73
2023/02/08 13:51:57;;;;;;;17.97;11.40;;;;;;;;;;5099487;28;20205;-72
2023/02/08 13:54:25;;;;;;;18.80;11.93;;;;;;;;;;5088485;28;20232;-71
2023/02/08 13:56:53;;;;;;;17.07;11.10;;;;;;;;;;5089713;28;20539;-66
2023/02/08 13:59:27;;;;;;;20.40;12.50;;;;;;;;;;5107568;28;20257;-66
2023/02/08 14:02:16;;;;;;;31.40;13.70;;;;;;;;;;5099880;28;20649;-67
2023/02/08 14:04:45;;;;;;;21.93;12.57;;;;;;;;;;5099570;28;20256;-69
2023/02/08 14:07:15;;;;;;;19.10;12.07;;;;;;;;;;5097876;28;20205;-69
2023/02/08 14:09:58;;;;;;;20.27;12.40;;;;;;;;;;5099766;28;20229;-69
2023/02/08 14:12:28;;;;;;;17.60;11.87;;;;;;;;;;5097904;28;20288;-68
2023/02/08 14:15:08;;;;;;;18.47;12.47;;;;;;;;;;5097287;28;20209;-68
2023/02/08 14:17:36;;;;;;;16.53;12.03;;;;;;;;;;5084779;28;20225;-69
2023/02/08 14:20:06;;;;;;;16.70;11.30;;;;;;;;;;5093871;28;20281;-68
2023/02/08 14:22:36;;;;;;;18.97;12.70;;;;;;;;;;5088257;28;20248;-68
2023/02/08 14:25:06;;;;;;;20.23;11.93;;;;;;;;;;5096708;28;20254;-69
2023/02/08 14:27:38;;;;;;;21.27;11.40;;;;;;;;;;5096203;28;20251;-76
2023/02/08 14:30:19;;;;;;;14.67;10.10;;;;;;;;;;5098671;28;20202;-76
2023/02/08 14:32:51;;;;;;;17.83;10.47;;;;;;;;;;5097881;28;20252;-73
2023/02/08 14:35:21;;;;;;;18.27;10.70;;;;;;;;;;5099393;28;20204;-76
2023/02/08 14:37:49;;;;;;;14.27;9.60;;;;;;;;;;5099472;28;20205;-76
2023/02/08 14:40:33;;;;;;;14.50;9.80;;;;;;;;;;5098778;28;20204;-76
2023/02/08 14:43:05;;;;;;;12.93;8.80;;;;;;;;;;5099345;28;20249;-77
2023/02/08 14:45:35;;;;;;;14.10;9.10;;;;;;;;;;5094236;28;20230;-74
2023/02/08 14:48:19;;;;;;;13.03;9.10;;;;;;;;;;5099148;28;20232;-76